createdAt,value
2022-11-30T00:00:58.528Z,91.83
2022-11-30T00:03:25.841Z,92.09
2022-11-30T00:05:52.757Z,92.77
2022-11-30T00:08:19.239Z,92.32
2022-11-30T00:10:45.889Z,92.37
2022-11-30T00:13:12.433Z,92.71
2022-11-30T00:15:39.272Z,92.58
2022-11-30T00:18:05.800Z,92.51
2022-11-30T00:20:32.365Z,92.64
2022-11-30T00:22:58.901Z,92.64
2022-11-30T00:25:25.521Z,92.33
2022-11-30T00:27:52.471Z,92.20
2022-11-30T00:30:19.015Z,92.33
2022-11-30T00:32:45.478Z,92.60
2022-11-30T00:35:12.515Z,92.78
2022-11-30T00:37:39.048Z,92.57
2022-11-30T00:40:06.343Z,92.77
2022-11-30T00:42:32.860Z,92.68
2022-11-30T00:44:59.336Z,92.81
2022-11-30T00:47:25.769Z,92.80
2022-11-30T00:49:52.286Z,92.86
2022-11-30T00:52:18.722Z,92.75
2022-11-30T00:54:45.946Z,92.97
2022-11-30T00:57:12.921Z,92.88
2022-11-30T00:59:39.442Z,92.55
2022-11-30T01:02:06.054Z,92.94
2022-11-30T01:04:32.924Z,92.81
2022-11-30T01:06:59.393Z,92.67
2022-11-30T01:09:25.841Z,92.62
2022-11-30T01:11:52.360Z,92.51
2022-11-30T01:14:18.842Z,92.44
2022-11-30T01:16:45.307Z,92.56
2022-11-30T01:19:11.823Z,92.53
2022-11-30T01:21:38.462Z,92.52
2022-11-30T01:24:05.452Z,92.75
2022-11-30T01:26:31.945Z,92.48
2022-11-30T01:28:58.434Z,92.30
2022-11-30T01:31:25.435Z,92.40
2022-11-30T01:33:56.478Z,92.54
2022-11-30T01:36:26.548Z,92.38
2022-11-30T01:38:55.562Z,92.65
2022-11-30T01:41:28.352Z,92.49
2022-11-30T01:44:19.512Z,92.27
2022-11-30T01:46:56.079Z,91.41
2022-11-30T01:49:30.700Z,91.01
2022-11-30T01:52:11.945Z,90.54
2022-11-30T01:54:43.637Z,91.10
2022-11-30T01:57:25.790Z,91.08
2022-11-30T01:59:54.265Z,90.33
2022-11-30T02:02:27.002Z,90.63
2022-11-30T02:04:53.641Z,90.43
2022-11-30T02:07:20.410Z,90.69
2022-11-30T02:09:46.940Z,90.63
2022-11-30T02:13:08.493Z,90.93
2022-11-30T02:15:53.069Z,90.89
2022-11-30T02:18:25.609Z,90.84
2022-11-30T02:21:06.249Z,90.81
2022-11-30T02:23:47.534Z,91.01
2022-11-30T02:26:39.927Z,91.16
2022-11-30T02:29:12.846Z,91.20
2022-11-30T02:31:49.047Z,91.41
2022-11-30T02:34:17.830Z,90.83
2022-11-30T02:36:46.158Z,91.08
2022-11-30T02:39:12.700Z,91.33
2022-11-30T02:41:40.590Z,90.96
2022-11-30T02:44:10.460Z,91.11
2022-11-30T02:47:02.025Z,91.12
2022-11-30T02:49:44.218Z,91.61
2022-11-30T02:52:12.745Z,91.15
2022-11-30T02:54:39.801Z,91.63
2022-11-30T02:57:06.714Z,91.68
2022-11-30T02:59:33.513Z,91.70
2022-11-30T03:02:00.067Z,92.05
2022-11-30T03:04:26.541Z,91.51
2022-11-30T03:06:53.049Z,91.20
2022-11-30T03:09:19.863Z,91.69
2022-11-30T03:11:46.628Z,91.37
2022-11-30T03:14:13.123Z,91.06
2022-11-30T03:16:39.748Z,91.07
2022-11-30T03:19:06.348Z,90.86
2022-11-30T03:21:32.809Z,90.25
2022-11-30T03:23:59.388Z,90.31
2022-11-30T03:26:25.917Z,90.25
2022-11-30T03:28:52.669Z,90.05
2022-11-30T03:31:19.333Z,89.85
2022-11-30T03:33:46.090Z,89.26
2022-11-30T03:36:13.343Z,89.00
2022-11-30T03:38:40.122Z,88.79
2022-11-30T03:41:10.062Z,88.63
2022-11-30T03:43:36.605Z,87.99
2022-11-30T03:46:04.072Z,88.20
2022-11-30T03:48:31.601Z,88.30
2022-11-30T03:50:58.625Z,88.35
2022-11-30T03:53:26.075Z,88.30
2022-11-30T03:55:57.100Z,88.50
2022-11-30T03:58:24.512Z,88.48
2022-11-30T04:00:58.202Z,87.90
2022-11-30T04:03:24.675Z,87.66
2022-11-30T04:05:51.156Z,87.85
2022-11-30T04:08:17.690Z,87.39
2022-11-30T04:10:47.278Z,87.84
2022-11-30T04:13:14.053Z,87.32
2022-11-30T04:15:40.534Z,86.79
2022-11-30T04:18:07.081Z,87.69
2022-11-30T04:20:40.055Z,87.42
2022-11-30T04:23:07.166Z,87.57
2022-11-30T04:25:34.091Z,86.76
2022-11-30T04:28:00.533Z,86.36
2022-11-30T04:30:26.972Z,86.40
2022-11-30T04:32:53.802Z,84.74
2022-11-30T04:35:20.245Z,83.59
2022-11-30T04:37:46.676Z,84.30
2022-11-30T04:40:14.106Z,84.55
2022-11-30T04:42:41.555Z,84.25
2022-11-30T04:45:08.711Z,84.14
2022-11-30T04:47:35.139Z,83.93
2022-11-30T04:50:01.668Z,84.44
2022-11-30T04:52:28.530Z,83.31
2022-11-30T04:54:57.107Z,83.73
2022-11-30T04:57:24.386Z,83.86
2022-11-30T04:59:51.073Z,83.11
2022-11-30T05:02:17.652Z,82.59
2022-11-30T05:04:44.369Z,82.46
2022-11-30T05:07:10.878Z,82.63
2022-11-30T05:09:37.347Z,82.54
2022-11-30T05:12:03.900Z,82.60
2022-11-30T05:14:30.321Z,82.74
2022-11-30T05:16:56.835Z,82.88
2022-11-30T05:19:23.265Z,82.45
2022-11-30T05:21:49.750Z,82.74
2022-11-30T05:24:16.355Z,82.40
2022-11-30T05:26:42.880Z,82.66
2022-11-30T05:29:09.671Z,82.69
2022-11-30T05:31:38.478Z,82.81
2022-11-30T05:34:04.975Z,82.87
2022-11-30T05:36:31.957Z,82.90
2022-11-30T05:38:58.412Z,82.86
2022-11-30T05:41:24.838Z,82.87
2022-11-30T05:43:51.352Z,82.17
2022-11-30T05:46:17.833Z,82.79
2022-11-30T05:48:44.317Z,82.64
2022-11-30T05:51:16.174Z,82.73
2022-11-30T05:53:43.535Z,82.47
2022-11-30T05:56:13.803Z,82.54
2022-11-30T05:58:40.711Z,82.89
2022-11-30T06:01:08.090Z,82.51
2022-11-30T06:03:35.783Z,83.18
2022-11-30T06:06:02.255Z,82.96
2022-11-30T06:08:28.713Z,82.95
2022-11-30T06:10:59.626Z,83.22
2022-11-30T06:13:28.818Z,82.98
2022-11-30T06:15:59.097Z,83.48
2022-11-30T06:18:25.644Z,83.26
2022-11-30T06:20:52.096Z,83.70
2022-11-30T06:23:18.658Z,83.77
2022-11-30T06:25:45.189Z,83.77
2022-11-30T06:28:11.902Z,84.07
2022-11-30T06:30:38.443Z,83.97
2022-11-30T06:33:04.921Z,83.99
2022-11-30T06:35:31.383Z,83.83
2022-11-30T06:37:57.869Z,84.02
2022-11-30T06:40:24.490Z,84.01
2022-11-30T06:42:50.953Z,84.33
2022-11-30T06:45:17.433Z,84.38
2022-11-30T06:47:44.062Z,84.39
2022-11-30T06:50:12.705Z,84.99
2022-11-30T06:52:39.212Z,84.77
2022-11-30T06:55:06.195Z,84.89
2022-11-30T06:57:32.682Z,85.24
2022-11-30T06:59:59.186Z,84.93
2022-11-30T07:02:25.692Z,85.50
2022-11-30T07:04:52.112Z,85.14
2022-11-30T07:07:18.750Z,85.84
2022-11-30T07:09:45.294Z,85.99
2022-11-30T07:12:11.906Z,85.88
2022-11-30T07:14:38.380Z,86.05
2022-11-30T07:17:04.889Z,86.25
2022-11-30T07:19:34.207Z,86.23
2022-11-30T07:22:01.528Z,86.30
2022-11-30T07:24:47.468Z,86.13
2022-11-30T07:27:14.195Z,85.43
2022-11-30T07:29:40.671Z,85.45
2022-11-30T07:32:07.259Z,85.36
2022-11-30T07:34:33.754Z,85.22
2022-11-30T07:37:00.208Z,85.55
2022-11-30T07:39:26.641Z,85.63
2022-11-30T07:41:53.061Z,84.85
2022-11-30T07:44:19.588Z,84.66
2022-11-30T07:46:46.020Z,85.04
2022-11-30T07:49:13.282Z,84.58
2022-11-30T07:51:39.854Z,84.72
2022-11-30T07:54:06.386Z,84.86
2022-11-30T07:56:32.921Z,85.17
2022-11-30T07:59:01.537Z,85.54
2022-11-30T08:01:31.362Z,86.24
2022-11-30T08:03:58.503Z,86.38
2022-11-30T08:06:30.409Z,86.24
2022-11-30T08:08:59.574Z,86.34
2022-11-30T08:11:31.612Z,86.68
2022-11-30T08:13:58.252Z,86.77
2022-11-30T08:16:28.122Z,86.90
2022-11-30T08:18:58.481Z,86.39
2022-11-30T08:21:25.540Z,87.02
2022-11-30T08:23:56.097Z,87.21
2022-11-30T08:26:28.306Z,87.25
2022-11-30T08:28:55.682Z,86.78
2022-11-30T08:31:28.271Z,86.93
2022-11-30T08:34:06.584Z,86.35
2022-11-30T08:36:33.990Z,86.77
2022-11-30T08:39:02.921Z,86.95
2022-11-30T08:41:29.647Z,86.63
2022-11-30T08:43:56.579Z,86.29
2022-11-30T08:49:26.827Z,86.69
2022-11-30T08:54:46.146Z,86.80
2022-11-30T08:57:15.158Z,87.33
2022-11-30T08:59:41.718Z,87.42
2022-11-30T09:02:10.598Z,87.51
2022-11-30T09:04:37.225Z,87.64
2022-11-30T09:07:04.332Z,87.95
2022-11-30T09:09:31.012Z,88.00
2022-11-30T09:11:57.541Z,88.21
2022-11-30T09:14:23.972Z,88.14
2022-11-30T09:16:50.430Z,88.62
2022-11-30T09:19:16.968Z,88.09
2022-11-30T09:21:50.950Z,87.92
2022-11-30T09:24:19.164Z,88.39
2022-11-30T09:26:45.601Z,88.17
2022-11-30T09:29:12.062Z,88.06
2022-11-30T09:31:38.883Z,88.04
2022-11-30T09:34:05.359Z,88.38
2022-11-30T09:36:33.060Z,87.21
2022-11-30T09:39:00.385Z,86.45
2022-11-30T09:41:53.961Z,86.49
2022-11-30T09:44:25.696Z,86.19
2022-11-30T09:46:55.323Z,86.64
2022-11-30T09:49:31.141Z,86.83
2022-11-30T09:52:03.520Z,86.82
2022-11-30T09:54:45.148Z,86.29
2022-11-30T09:57:26.205Z,86.81
2022-11-30T09:59:55.987Z,86.04
2022-11-30T10:02:28.464Z,86.31
2022-11-30T10:04:55.293Z,86.24
2022-11-30T10:07:46.928Z,86.37
2022-11-30T10:10:33.091Z,86.85
2022-11-30T10:13:35.108Z,86.87
2022-11-30T10:16:08.964Z,86.82
2022-11-30T10:18:50.585Z,86.51
2022-11-30T10:21:40.823Z,86.23
2022-11-30T10:24:15.406Z,86.07
2022-11-30T10:26:54.510Z,86.31
2022-11-30T10:29:30.058Z,86.00
2022-11-30T10:32:00.082Z,86.11
2022-11-30T10:34:49.338Z,86.50
2022-11-30T10:37:27.867Z,86.19
2022-11-30T10:40:06.307Z,86.06
2022-11-30T10:42:41.194Z,86.47
2022-11-30T10:45:13.437Z,85.76
2022-11-30T10:47:44.990Z,86.11
2022-11-30T10:50:15.487Z,85.87
2022-11-30T10:52:46.311Z,85.96
2022-11-30T10:55:20.881Z,86.18
2022-11-30T10:57:49.839Z,86.20
2022-11-30T11:00:18.194Z,85.92
2022-11-30T11:02:48.111Z,86.00
2022-11-30T11:05:16.806Z,86.50
2022-11-30T11:08:06.420Z,86.18
2022-11-30T11:10:36.851Z,85.82
2022-11-30T11:15:35.434Z,85.96
2022-11-30T11:18:22.982Z,85.84
2022-11-30T11:21:06.766Z,85.61
2022-11-30T11:23:40.938Z,86.26
2022-11-30T11:26:17.491Z,86.18
2022-11-30T11:28:47.008Z,86.01
2022-11-30T11:31:30.378Z,85.28
2022-11-30T11:33:56.967Z,85.70
2022-11-30T11:36:29.761Z,85.95
2022-11-30T11:38:57.012Z,85.62
2022-11-30T11:41:37.529Z,85.67
2022-11-30T11:44:09.958Z,85.20
2022-11-30T11:46:59.239Z,85.32
2022-11-30T11:49:28.383Z,85.12
2022-11-30T11:52:13.213Z,85.42
2022-11-30T11:54:44.086Z,85.09
2022-11-30T11:57:14.677Z,85.61
2022-11-30T11:59:55.092Z,85.85
2022-11-30T12:02:34.834Z,85.59
2022-11-30T12:05:10.078Z,85.99
2022-11-30T12:07:50.460Z,84.98
2022-11-30T12:13:32.487Z,86.08
2022-11-30T12:16:19.147Z,85.88
2022-11-30T12:18:55.924Z,85.40
2022-11-30T12:21:34.567Z,85.53
2022-11-30T12:24:13.542Z,85.41
2022-11-30T12:27:03.398Z,85.95
2022-11-30T12:29:58.179Z,85.45
2022-11-30T12:32:37.271Z,85.89
2022-11-30T12:35:27.126Z,85.58
2022-11-30T12:38:20.564Z,85.72
2022-11-30T12:41:02.627Z,85.86
2022-11-30T12:43:48.465Z,85.40
2022-11-30T12:46:34.149Z,85.23
2022-11-30T12:49:26.011Z,85.56
2022-11-30T12:52:02.793Z,85.87
2022-11-30T12:54:32.092Z,85.12
2022-11-30T12:57:20.412Z,85.67
2022-11-30T13:00:10.830Z,85.32
2022-11-30T13:02:46.249Z,86.17
2022-11-30T13:05:23.146Z,85.88
2022-11-30T13:08:12.051Z,85.19
2022-11-30T13:10:49.879Z,85.56
2022-11-30T13:13:21.269Z,85.13
2022-11-30T13:15:50.040Z,85.58
2022-11-30T13:18:23.066Z,85.29
2022-11-30T13:21:06.885Z,85.35
2022-11-30T13:24:10.168Z,85.01
2022-11-30T13:26:42.325Z,85.03
2022-11-30T13:29:27.694Z,84.80
2022-11-30T13:32:06.087Z,85.04
2022-11-30T13:34:33.003Z,85.29
2022-11-30T13:37:27.178Z,85.77
2022-11-30T13:39:57.534Z,85.06
2022-11-30T13:42:30.538Z,84.96
2022-11-30T13:44:59.322Z,85.40
2022-11-30T13:47:35.152Z,85.59
2022-11-30T13:50:29.578Z,85.34
2022-11-30T13:52:59.050Z,85.43
2022-11-30T13:55:57.290Z,84.98
2022-11-30T13:58:25.475Z,85.14
2022-11-30T14:01:23.476Z,85.00
2022-11-30T14:04:28.468Z,84.69
2022-11-30T14:06:56.429Z,85.26
2022-11-30T14:09:41.261Z,85.10
2022-11-30T14:12:47.135Z,85.50
2022-11-30T14:15:32.255Z,85.17
2022-11-30T14:18:04.899Z,85.15
2022-11-30T14:20:37.982Z,85.47
2022-11-30T14:23:13.473Z,85.12
2022-11-30T14:25:47.222Z,85.21
2022-11-30T14:28:21.647Z,85.32
2022-11-30T14:30:49.080Z,85.44
2022-11-30T14:33:31.636Z,84.72
2022-11-30T14:36:00.540Z,85.23
2022-11-30T14:38:31.662Z,85.17
2022-11-30T14:40:58.721Z,84.95
2022-11-30T14:43:25.701Z,85.37
2022-11-30T14:46:06.438Z,84.98
2022-11-30T14:48:34.547Z,85.14
2022-11-30T14:51:04.082Z,85.04
2022-11-30T14:53:47.148Z,85.12
2022-11-30T14:56:41.464Z,85.10
2022-11-30T14:59:29.842Z,84.91
2022-11-30T15:02:02.732Z,85.03
2022-11-30T15:04:30.067Z,85.10
2022-11-30T15:06:57.448Z,84.63
2022-11-30T15:09:28.573Z,85.25
2022-11-30T15:11:56.355Z,84.75
2022-11-30T15:14:24.468Z,85.03
2022-11-30T15:16:53.706Z,85.16
2022-11-30T15:19:28.834Z,85.31
2022-11-30T15:21:57.015Z,84.67
2022-11-30T15:24:24.296Z,84.09
2022-11-30T15:27:10.289Z,84.31
2022-11-30T15:29:41.478Z,84.07
2022-11-30T15:32:16.623Z,84.13
2022-11-30T15:34:56.334Z,84.05
2022-11-30T15:37:37.873Z,84.35
2022-11-30T15:40:06.673Z,84.01
2022-11-30T15:42:45.016Z,84.43
2022-11-30T15:45:22.812Z,84.41
2022-11-30T15:47:49.757Z,84.40
2022-11-30T15:50:31.206Z,84.11
2022-11-30T15:53:25.428Z,84.22
2022-11-30T15:55:55.191Z,84.20
2022-11-30T15:58:29.194Z,83.98
2022-11-30T16:01:00.151Z,83.60
2022-11-30T16:03:26.673Z,84.01
2022-11-30T16:05:58.358Z,84.07
2022-11-30T16:08:25.941Z,84.22
2022-11-30T16:10:52.727Z,84.35
2022-11-30T16:13:22.311Z,84.12
2022-11-30T16:15:51.198Z,84.77
2022-11-30T16:18:22.217Z,84.88
2022-11-30T16:21:00.735Z,84.60
2022-11-30T16:23:28.131Z,84.12
2022-11-30T16:25:54.811Z,84.00
2022-11-30T16:28:22.746Z,84.22
2022-11-30T16:30:49.823Z,84.89
2022-11-30T16:33:19.778Z,84.99
2022-11-30T16:35:56.499Z,85.18
2022-11-30T16:38:24.686Z,84.92
2022-11-30T16:40:54.077Z,85.17
2022-11-30T16:43:20.776Z,84.67
2022-11-30T16:45:47.330Z,85.08
2022-11-30T16:48:16.744Z,84.67
2022-11-30T16:50:44.725Z,85.07
2022-11-30T16:53:16.701Z,85.14
2022-11-30T16:55:43.447Z,85.66
2022-11-30T16:58:09.949Z,85.62
2022-11-30T17:00:39.560Z,85.52
2022-11-30T17:03:26.676Z,85.51
2022-11-30T17:05:53.195Z,85.77
2022-11-30T17:08:20.021Z,85.35
2022-11-30T17:10:51.638Z,86.40
2022-11-30T17:15:49.362Z,86.39
2022-11-30T17:18:16.032Z,86.72
2022-11-30T17:20:42.670Z,86.65
2022-11-30T17:23:09.251Z,86.54
2022-11-30T17:25:35.668Z,86.29
2022-11-30T17:28:02.120Z,86.35
2022-11-30T17:30:28.717Z,86.56
2022-11-30T17:32:55.230Z,86.40
2022-11-30T17:35:21.670Z,86.22
2022-11-30T17:37:48.615Z,86.05
2022-11-30T17:40:18.169Z,86.23
2022-11-30T17:42:44.641Z,86.40
2022-11-30T17:45:11.348Z,86.42
2022-11-30T17:47:38.040Z,86.62
2022-11-30T17:50:06.744Z,86.70
2022-11-30T17:52:33.822Z,86.46
2022-11-30T17:55:00.268Z,86.39
2022-11-30T17:57:26.870Z,86.24
2022-11-30T17:59:54.310Z,86.32
2022-11-30T18:02:21.822Z,86.65
2022-11-30T18:04:48.518Z,86.50
2022-11-30T18:07:15.827Z,86.42
2022-11-30T18:09:43.107Z,86.37
2022-11-30T18:12:10.686Z,86.37
2022-11-30T18:14:37.350Z,86.38
2022-11-30T18:17:04.511Z,87.00
2022-11-30T18:19:30.986Z,86.63
2022-11-30T18:21:57.515Z,86.69
2022-11-30T18:24:25.707Z,86.96
2022-11-30T18:26:52.696Z,87.31
2022-11-30T18:29:19.853Z,87.22
2022-11-30T18:31:48.503Z,86.99
2022-11-30T18:34:15.253Z,86.93
2022-11-30T18:36:41.863Z,87.24
2022-11-30T18:39:08.347Z,87.38
2022-11-30T18:41:35.283Z,87.80
2022-11-30T18:44:01.750Z,87.25
2022-11-30T18:46:28.335Z,87.85
2022-11-30T18:48:55.363Z,87.65
2022-11-30T18:51:27.241Z,87.11
2022-11-30T18:53:59.915Z,87.40
2022-11-30T18:56:28.646Z,87.60
2022-11-30T18:58:57.783Z,87.46
2022-11-30T19:01:25.536Z,87.04
2022-11-30T19:03:54.886Z,87.06
2022-11-30T19:06:22.252Z,86.41
2022-11-30T19:08:48.892Z,86.77
2022-11-30T19:11:16.586Z,86.63
2022-11-30T19:13:44.000Z,87.08
2022-11-30T19:16:13.699Z,87.19
2022-11-30T19:18:40.443Z,86.79
2022-11-30T19:21:09.225Z,86.89
2022-11-30T19:23:37.449Z,86.66
2022-11-30T19:26:05.599Z,86.77
2022-11-30T19:28:33.927Z,86.16
2022-11-30T19:31:05.693Z,86.54
2022-11-30T19:33:34.556Z,86.74
2022-11-30T19:36:02.077Z,86.90
2022-11-30T19:38:28.914Z,86.64
2022-11-30T19:40:55.380Z,86.28
2022-11-30T19:43:21.858Z,86.33
2022-11-30T19:45:48.432Z,86.33
2022-11-30T19:48:15.009Z,86.22
2022-11-30T19:50:41.471Z,86.35
2022-11-30T19:53:08.447Z,86.17
2022-11-30T19:55:38.331Z,86.04
2022-11-30T19:58:04.769Z,85.43
2022-11-30T20:00:31.242Z,85.33
2022-11-30T20:02:57.731Z,85.75
2022-11-30T20:05:24.230Z,85.46
2022-11-30T20:07:50.784Z,85.79
2022-11-30T20:10:17.321Z,85.54
2022-11-30T20:12:43.878Z,85.68
2022-11-30T20:15:10.679Z,85.84
2022-11-30T20:17:37.174Z,85.45
2022-11-30T20:20:04.184Z,85.80
2022-11-30T20:22:31.077Z,86.11
2022-11-30T20:24:57.510Z,86.04
2022-11-30T20:27:24.957Z,85.33
2022-11-30T20:29:52.504Z,85.77
2022-11-30T20:32:19.945Z,86.36
2022-11-30T20:34:46.929Z,85.78
2022-11-30T20:37:15.642Z,85.96
2022-11-30T20:39:46.114Z,86.09
2022-11-30T20:42:13.317Z,85.71
2022-11-30T20:44:39.807Z,85.38
2022-11-30T20:47:06.260Z,85.97
2022-11-30T20:49:32.721Z,85.73
2022-11-30T20:51:59.263Z,86.03
2022-11-30T20:54:25.745Z,85.92
2022-11-30T20:56:52.243Z,86.02
2022-11-30T20:59:22.167Z,85.75
2022-11-30T21:01:48.745Z,85.69
2022-11-30T21:04:15.274Z,85.39
2022-11-30T21:06:45.355Z,85.64
2022-11-30T21:09:13.851Z,85.47
2022-11-30T21:11:41.391Z,85.50
2022-11-30T21:14:08.762Z,85.61
2022-11-30T21:16:36.003Z,85.59
2022-11-30T21:19:03.294Z,85.05
2022-11-30T21:21:32.671Z,85.49
2022-11-30T21:24:01.516Z,85.75
2022-11-30T21:26:34.062Z,85.62
2022-11-30T21:29:06.998Z,85.61
2022-11-30T21:31:35.162Z,85.57
2022-11-30T21:34:02.170Z,84.91
2022-11-30T21:36:29.289Z,84.88
2022-11-30T21:39:05.151Z,85.48
2022-11-30T21:41:32.925Z,85.36
2022-11-30T21:43:59.480Z,85.18
2022-11-30T21:46:26.099Z,85.11
2022-11-30T21:48:52.604Z,85.28
2022-11-30T21:51:22.483Z,84.96
2022-11-30T21:53:54.475Z,84.63
2022-11-30T21:56:23.952Z,84.94
2022-11-30T21:58:51.396Z,85.06
2022-11-30T22:01:24.421Z,85.22
2022-11-30T22:03:51.022Z,85.15
2022-11-30T22:06:20.282Z,85.14
2022-11-30T22:08:47.040Z,84.89
2022-11-30T22:11:15.944Z,84.99
2022-11-30T22:13:43.043Z,84.82
2022-11-30T22:16:15.076Z,84.42
2022-11-30T22:18:43.061Z,84.17
2022-11-30T22:21:10.987Z,84.92
2022-11-30T22:23:39.408Z,84.66
2022-11-30T22:26:21.062Z,85.17
2022-11-30T22:28:57.401Z,85.01
2022-11-30T22:31:31.096Z,84.89
2022-11-30T22:33:58.036Z,84.68
2022-11-30T22:36:27.081Z,84.88
2022-11-30T22:38:58.680Z,85.06
2022-11-30T22:41:26.166Z,84.68
2022-11-30T22:43:53.031Z,84.58
2022-11-30T22:46:22.217Z,84.64
2022-11-30T22:48:49.483Z,84.44
2022-11-30T22:51:27.819Z,84.71
2022-11-30T22:53:55.141Z,84.68
2022-11-30T22:56:23.848Z,84.61
2022-11-30T22:58:54.069Z,84.47
2022-11-30T23:01:25.684Z,85.27
2022-11-30T23:03:54.226Z,85.09
2022-11-30T23:06:21.804Z,85.59
2022-11-30T23:08:49.703Z,85.61
2022-11-30T23:11:19.313Z,85.43
2022-11-30T23:13:46.099Z,85.83
2022-11-30T23:16:14.538Z,85.97
2022-11-30T23:18:43.544Z,85.58
2022-11-30T23:21:13.901Z,85.22
2022-11-30T23:23:41.573Z,85.20
2022-11-30T23:26:23.262Z,85.41
2022-11-30T23:28:51.627Z,85.26
2022-11-30T23:31:32.384Z,85.67
2022-11-30T23:34:01.957Z,85.57
2022-11-30T23:36:29.128Z,85.74
2022-11-30T23:38:59.030Z,86.04
2022-11-30T23:41:26.386Z,86.17
2022-11-30T23:43:53.387Z,86.48
2022-11-30T23:46:20.312Z,86.40
2022-11-30T23:48:47.163Z,86.52
2022-11-30T23:51:13.653Z,85.67
2022-11-30T23:53:40.622Z,86.36
2022-11-30T23:56:09.025Z,86.47
2022-11-30T23:58:36.146Z,86.34
